Time;durP1;ratioP1;P1;durP2;ratioP2;P2;SDS_P1;SDS_P2;PMS_P1;PMS_P2;Temp;Humidity;BMP_temperature;BMP_pressure;BME280_temperature;BME280_humidity;BME280_pressure;Samples;Min_cycle;Max_cycle;Signal;HPM_P1;HPM_P2
2023/05/17 00:00:36;;;;;;;;;;;;;;;8.43;55.61;98278.00;5089913;28;19920;-57
2023/05/17 00:03:03;;;;;;;;;;;;;;;8.39;55.89;98278.56;5089854;28;20332;-57
2023/05/17 00:05:31;;;;;;;;;;;;;;;8.40;55.62;98277.44;5090965;28;20407;-58
2023/05/17 00:08:01;;;;;;;;;;;;;;;8.40;55.95;98280.16;5123552;27;19951;-58
2023/05/17 00:10:28;;;;;;;;;;;;;;;8.36;55.93;98275.59;5086937;28;20177;-59
2023/05/17 00:12:56;;;;;;;;;;;;;;;8.34;55.98;98275.06;5103508;28;19926;-57
2023/05/17 00:15:24;;;;;;;;;;;;;;;8.30;55.93;98272.13;5095673;28;19920;-59
2023/05/17 00:17:52;;;;;;;;;;;;;;;8.32;55.99;98280.78;5096476;28;20297;-57
2023/05/17 00:20:20;;;;;;;;;;;;;;;8.30;55.78;98285.66;5093939;28;19927;-58
2023/05/17 00:22:48;;;;;;;;;;;;;;;8.24;55.86;98281.41;5088773;28;19920;-57
2023/05/17 00:25:17;;;;;;;;;;;;;;;8.22;56.17;98283.59;5096201;28;19935;-57
2023/05/17 00:27:45;;;;;;;;;;;;;;;8.23;56.03;98277.06;5102982;28;20353;-56
2023/05/17 00:30:13;;;;;;;;;;;;;;;8.18;56.04;98277.13;5099258;28;19942;-57
2023/05/17 00:32:45;;;;;;;;;;;;;;;8.09;56.35;98286.97;5092586;28;19930;-58
2023/05/17 00:35:13;;;;;;;;;;;;;;;8.05;56.62;98283.22;5095667;28;19920;-57
2023/05/17 00:37:46;;;;;;;;;;;;;;;8.08;56.27;98277.22;5083816;28;19920;-58
2023/05/17 00:40:15;;;;;;;;;;;;;;;8.06;57.03;98279.44;5083731;28;19932;-57
2023/05/17 00:42:47;;;;;;;;;;;;;;;7.98;57.80;98282.72;5088984;28;19925;-57
2023/05/17 00:45:17;;;;;;;;;;;;;;;8.00;57.26;98283.28;5118113;27;19931;-57
2023/05/17 00:47:47;;;;;;;;;;;;;;;8.00;57.11;98285.97;5069489;28;19921;-56
2023/05/17 00:50:14;;;;;;;;;;;;;;;8.01;57.22;98293.00;5083557;28;20023;-57
2023/05/17 00:52:46;;;;;;;;;;;;;;;7.99;57.13;98300.56;5089511;28;19924;-62
2023/05/17 00:55:14;;;;;;;;;;;;;;;7.98;57.41;98298.97;5090839;28;19968;-62
2023/05/17 00:57:46;;;;;;;;;;;;;;;7.91;57.79;98302.00;5100076;28;20311;-57
2023/05/17 01:00:15;;;;;;;;;;;;;;;7.87;58.03;98301.75;5086530;28;19924;-58
2023/05/17 01:02:47;;;;;;;;;;;;;;;7.85;58.10;98301.25;5085714;28;20361;-56
2023/05/17 01:05:15;;;;;;;;;;;;;;;7.90;57.42;98302.31;5079734;28;19978;-57
2023/05/17 01:07:43;;;;;;;;;;;;;;;7.83;57.48;98302.63;5094123;28;19920;-57
2023/05/17 01:10:11;;;;;;;;;;;;;;;7.78;57.92;98310.78;5093850;28;20000;-57
2023/05/17 01:12:43;;;;;;;;;;;;;;;7.75;57.97;98304.03;5130017;27;20361;-60
2023/05/17 01:15:14;;;;;;;;;;;;;;;7.78;58.01;98306.19;5099202;28;19923;-65
2023/05/17 01:17:44;;;;;;;;;;;;;;;7.79;57.96;98312.41;5106897;28;20004;-61
2023/05/17 01:20:14;;;;;;;;;;;;;;;7.77;58.49;98309.97;5130915;27;19936;-58
2023/05/17 01:22:44;;;;;;;;;;;;;;;7.72;58.63;98312.72;5105253;27;19924;-67
2023/05/17 01:25:17;;;;;;;;;;;;;;;7.64;58.57;98316.03;5135766;27;20403;-58
2023/05/17 01:27:50;;;;;;;;;;;;;;;7.65;59.18;98319.53;5095416;28;20135;-59
2023/05/17 01:30:19;;;;;;;;;;;;;;;7.61;58.98;98322.78;5097107;28;20022;-57
2023/05/17 01:32:47;;;;;;;;;;;;;;;7.56;59.19;98325.56;5131874;27;19931;-56
2023/05/17 01:35:18;;;;;;;;;;;;;;;7.53;59.30;98328.00;5096080;28;19925;-57
2023/05/17 01:37:46;;;;;;;;;;;;;;;7.49;59.30;98330.47;5100174;27;19919;-57
2023/05/17 01:40:14;;;;;;;;;;;;;;;7.52;59.19;98323.69;5096178;28;19926;-58
2023/05/17 01:42:41;;;;;;;;;;;;;;;7.55;59.62;98331.22;5125148;27;20647;-58
2023/05/17 01:45:14;;;;;;;;;;;;;;;7.55;59.60;98328.53;5081534;28;20497;-56
2023/05/17 01:47:43;;;;;;;;;;;;;;;7.53;59.72;98336.13;5127044;27;20047;-60
2023/05/17 01:50:12;;;;;;;;;;;;;;;7.56;59.50;98338.25;5096647;28;19942;-58
2023/05/17 01:52:43;;;;;;;;;;;;;;;7.49;60.17;98335.06;5083291;28;19972;-57
2023/05/17 01:55:14;;;;;;;;;;;;;;;7.49;60.19;98329.66;5104420;28;19969;-58
2023/05/17 01:57:43;;;;;;;;;;;;;;;7.43;60.73;98337.00;5092019;28;19923;-57
2023/05/17 02:00:11;;;;;;;;;;;;;;;7.38;60.79;98339.72;5086754;28;19939;-57
2023/05/17 02:02:43;;;;;;;;;;;;;;;7.37;60.77;98351.63;5085225;28;19980;-57
2023/05/17 02:05:13;;;;;;;;;;;;;;;7.42;60.17;98353.50;5108344;27;19956;-57
2023/05/17 02:07:41;;;;;;;;;;;;;;;7.42;60.17;98339.97;5076033;28;20457;-58
2023/05/17 02:10:09;;;;;;;;;;;;;;;7.46;59.95;98351.84;5090503;28;20283;-58
2023/05/17 02:12:41;;;;;;;;;;;;;;;7.42;60.30;98353.50;5078048;28;19945;-58
2023/05/17 02:15:10;;;;;;;;;;;;;;;7.38;60.10;98347.84;5090039;28;19955;-58
2023/05/17 02:17:39;;;;;;;;;;;;;;;7.35;60.33;98354.63;5088445;28;19934;-57
2023/05/17 02:20:10;;;;;;;;;;;;;;;7.33;60.74;98353.28;5101173;28;19934;-57
2023/05/17 02:22:38;;;;;;;;;;;;;;;7.31;60.36;98355.44;5088035;28;20000;-57
2023/05/17 02:25:06;;;;;;;;;;;;;;;7.30;60.16;98360.06;5093386;28;20380;-60
2023/05/17 02:27:34;;;;;;;;;;;;;;;7.26;60.57;98356.28;5101373;28;19987;-57
2023/05/17 02:30:03;;;;;;;;;;;;;;;7.22;60.78;98357.13;5090996;28;19928;-58
2023/05/17 02:32:31;;;;;;;;;;;;;;;7.22;60.83;98351.72;5078983;28;19970;-59
2023/05/17 02:34:59;;;;;;;;;;;;;;;7.16;60.80;98348.22;5124401;27;20772;-58
2023/05/17 02:37:29;;;;;;;;;;;;;;;7.13;61.17;98354.19;5090166;28;20361;-57
2023/05/17 02:39:56;;;;;;;;;;;;;;;7.07;61.18;98352.59;5080582;28;20388;-56
2023/05/17 02:42:24;;;;;;;;;;;;;;;7.07;61.69;98360.69;5087558;28;20376;-56
2023/05/17 02:44:55;;;;;;;;;;;;;;;7.08;61.59;98360.44;5101344;28;19938;-57
2023/05/17 02:47:22;;;;;;;;;;;;;;;7.01;61.89;98356.41;5088616;28;19931;-58
2023/05/17 02:49:50;;;;;;;;;;;;;;;6.95;62.32;98357.50;5102583;28;20337;-56
2023/05/17 02:52:18;;;;;;;;;;;;;;;6.95;62.58;98352.91;5105078;28;19938;-56
2023/05/17 02:54:47;;;;;;;;;;;;;;;6.92;62.37;98364.25;5102083;28;19935;-56
2023/05/17 02:57:15;;;;;;;;;;;;;;;6.94;62.83;98364.00;5087113;28;19931;-57
2023/05/17 02:59:43;;;;;;;;;;;;;;;6.98;62.20;98357.78;5086079;28;19935;-59
2023/05/17 03:02:11;;;;;;;;;;;;;;;6.97;62.56;98372.34;5100961;28;19990;-56
2023/05/17 03:04:39;;;;;;;;;;;;;;;6.99;62.41;98364.78;5088124;28;19930;-56
2023/05/17 03:07:08;;;;;;;;;;;;;;;6.99;62.46;98364.78;5075667;28;20004;-62
2023/05/17 03:09:37;;;;;;;;;;;;;;;6.96;62.62;98365.34;5123314;27;19982;-61
2023/05/17 03:12:10;;;;;;;;;;;;;;;6.93;62.72;98365.09;5087391;28;19934;-59
2023/05/17 03:14:38;;;;;;;;;;;;;;;6.92;62.64;98364.25;5106139;28;20384;-57
2023/05/17 03:17:06;;;;;;;;;;;;;;;6.95;62.63;98368.31;5108603;27;20003;-56
2023/05/17 03:19:35;;;;;;;;;;;;;;;6.91;62.83;98369.94;5129462;27;19923;-56
2023/05/17 03:22:03;;;;;;;;;;;;;;;6.90;62.66;98376.44;5094072;28;20024;-56
2023/05/17 03:24:33;;;;;;;;;;;;;;;6.84;62.92;98386.44;5101536;28;19926;-57
2023/05/17 03:27:01;;;;;;;;;;;;;;;6.83;62.92;98382.94;5077008;28;19925;-56
2023/05/17 03:29:30;;;;;;;;;;;;;;;6.83;63.23;98376.75;5114230;27;19925;-56
2023/05/17 03:31:58;;;;;;;;;;;;;;;6.83;63.22;98382.94;5074884;28;19924;-56
2023/05/17 03:34:27;;;;;;;;;;;;;;;6.81;63.38;98387.78;5115901;27;19932;-56
2023/05/17 03:36:55;;;;;;;;;;;;;;;6.82;62.90;98388.63;5102167;28;19920;-57
2023/05/17 03:39:23;;;;;;;;;;;;;;;6.86;63.13;98391.56;5088991;28;20436;-58
2023/05/17 03:41:51;;;;;;;;;;;;;;;6.85;63.01;98396.16;5082073;28;19927;-56
2023/05/17 03:44:20;;;;;;;;;;;;;;;6.92;62.79;98391.28;5088448;28;19954;-57
2023/05/17 03:46:50;;;;;;;;;;;;;;;6.82;63.16;98396.72;5083851;28;20272;-57
2023/05/17 03:49:19;;;;;;;;;;;;;;;6.86;62.83;98397.78;5127893;27;19927;-56
2023/05/17 03:51:48;;;;;;;;;;;;;;;6.82;63.34;98400.25;5097276;28;19924;-57
2023/05/17 03:54:17;;;;;;;;;;;;;;;6.77;63.56;98402.94;5101540;28;20691;-56
2023/05/17 03:56:47;;;;;;;;;;;;;;;6.73;63.60;98393.78;5088828;28;19926;-56
2023/05/17 03:59:17;;;;;;;;;;;;;;;6.74;63.51;98406.19;5110126;27;19932;-56
2023/05/17 04:01:45;;;;;;;;;;;;;;;6.77;63.72;98404.84;5092472;28;19945;-56
2023/05/17 04:04:15;;;;;;;;;;;;;;;6.82;63.30;98408.34;5086286;28;19924;-57
2023/05/17 04:06:44;;;;;;;;;;;;;;;6.81;63.07;98412.09;5112260;27;19927;-57
2023/05/17 04:09:14;;;;;;;;;;;;;;;6.82;63.28;98408.34;5085005;28;19921;-56
2023/05/17 04:11:42;;;;;;;;;;;;;;;6.88;63.32;98416.44;5090824;28;20681;-57
2023/05/17 04:14:25;;;;;;;;;;;;;;;6.88;63.04;98417.25;5091004;28;19942;-59
2023/05/17 04:16:57;;;;;;;;;;;;;;;6.88;62.95;98416.44;5130505;27;20420;-61
2023/05/17 04:19:37;;;;;;;;;;;;;;;6.94;63.23;98416.13;5085943;28;19921;-57
2023/05/17 04:22:05;;;;;;;;;;;;;;;7.04;62.55;98431.50;5075070;28;19920;-59
2023/05/17 04:24:33;;;;;;;;;;;;;;;7.07;62.50;98426.34;5094835;28;19939;-56
2023/05/17 04:27:03;;;;;;;;;;;;;;;7.17;62.49;98436.31;5093462;28;19962;-56
2023/05/17 04:29:31;;;;;;;;;;;;;;;7.24;62.56;98436.00;5091987;28;19927;-56
2023/05/17 04:32:00;;;;;;;;;;;;;;;7.27;62.34;98443.56;5073920;28;19920;-57
2023/05/17 04:34:30;;;;;;;;;;;;;;;7.37;62.09;98438.13;5066934;28;19924;-56
2023/05/17 04:37:01;;;;;;;;;;;;;;;7.37;61.98;98442.72;5068584;28;19921;-57
2023/05/17 04:39:30;;;;;;;;;;;;;;;7.41;61.65;98441.91;5112241;27;19973;-56
2023/05/17 04:41:58;;;;;;;;;;;;;;;7.49;61.37;98444.00;5088071;28;20364;-57
2023/05/17 04:44:26;;;;;;;;;;;;;;;7.56;60.91;98446.41;5076011;28;19966;-56
2023/05/17 04:46:55;;;;;;;;;;;;;;;7.59;60.88;98453.97;5087358;28;20025;-56
2023/05/17 04:49:23;;;;;;;;;;;;;;;7.60;61.15;98450.16;5064647;28;19998;-56
2023/05/17 04:51:53;;;;;;;;;;;;;;;7.65;60.75;98458.25;5077420;28;19928;-55
2023/05/17 04:54:22;;;;;;;;;;;;;;;7.58;61.03;98463.19;5085417;28;19935;-56
2023/05/17 04:56:50;;;;;;;;;;;;;;;7.58;61.26;98468.59;5089900;28;19934;-55
2023/05/17 04:59:36;;;;;;;;;;;;;;;7.63;61.07;98463.16;5076619;28;19931;-56
2023/05/17 05:02:05;;;;;;;;;;;;;;;7.74;60.70;98470.13;5073123;28;19942;-57
2023/05/17 05:04:33;;;;;;;;;;;;;;;7.79;60.39;98475.50;5090050;28;19924;-56
2023/05/17 05:07:01;;;;;;;;;;;;;;;7.69;60.82;98470.16;5093846;27;20429;-56
2023/05/17 05:09:31;;;;;;;;;;;;;;;7.76;60.92;98476.03;5081186;28;19920;-56
2023/05/17 05:11:59;;;;;;;;;;;;;;;7.86;60.42;98484.09;5102426;27;20296;-56
2023/05/17 05:14:27;;;;;;;;;;;;;;;7.94;60.70;98482.72;5059430;28;19927;-57
2023/05/17 05:16:55;;;;;;;;;;;;;;;8.01;59.84;98488.63;5070155;28;20345;-58
2023/05/17 05:19:23;;;;;;;;;;;;;;;8.07;59.73;98495.63;5073730;28;19931;-57
2023/05/17 05:21:52;;;;;;;;;;;;;;;8.08;59.60;98499.13;5082453;28;19927;-57
2023/05/17 05:24:20;;;;;;;;;;;;;;;8.07;59.38;98492.91;5093688;28;19920;-56
2023/05/17 05:26:51;;;;;;;;;;;;;;;8.13;59.58;98494.50;5094565;28;19963;-56
2023/05/17 05:29:20;;;;;;;;;;;;;;;8.19;59.26;98506.09;5088135;28;19927;-56
2023/05/17 05:31:48;;;;;;;;;;;;;;;8.23;59.81;98504.44;5092250;28;19926;-58
2023/05/17 05:34:17;;;;;;;;;;;;;;;8.37;59.26;98505.47;5088778;28;19975;-57
2023/05/17 05:36:45;;;;;;;;;;;;;;;8.47;58.77;98517.28;5116656;27;20357;-58
2023/05/17 05:39:15;;;;;;;;;;;;;;;8.55;58.92;98514.78;5092946;28;20491;-58
2023/05/17 05:41:43;;;;;;;;;;;;;;;8.62;58.30;98514.47;5093205;28;19931;-58
2023/05/17 05:44:13;;;;;;;;;;;;;;;8.63;58.17;98510.69;5091519;28;19927;-56
2023/05/17 05:46:41;;;;;;;;;;;;;;;8.72;58.21;98516.28;5098404;28;20385;-57
2023/05/17 05:49:09;;;;;;;;;;;;;;;8.80;57.86;98515.69;5111864;27;20366;-57
2023/05/17 05:51:37;;;;;;;;;;;;;;;8.79;57.94;98525.72;5106735;27;19924;-58
2023/05/17 05:54:06;;;;;;;;;;;;;;;8.88;57.54;98529.41;5092020;28;19920;-56
2023/05/17 05:56:34;;;;;;;;;;;;;;;8.89;57.95;98531.06;5092605;28;19947;-58
2023/05/17 05:59:03;;;;;;;;;;;;;;;8.96;57.74;98535.31;5134281;27;20481;-58
2023/05/17 06:01:32;;;;;;;;;;;;;;;9.02;57.88;98529.56;5087944;28;19959;-56
2023/05/17 06:04:00;;;;;;;;;;;;;;;9.08;57.63;98533.03;5079213;28;19920;-58
2023/05/17 06:06:30;;;;;;;;;;;;;;;9.20;56.79;98538.88;5079739;28;19989;-55
2023/05/17 06:08:58;;;;;;;;;;;;;;;9.26;56.90;98550.47;5112309;27;19970;-56
2023/05/17 06:11:26;;;;;;;;;;;;;;;9.29;56.87;98545.28;5101228;28;19965;-56
2023/05/17 06:13:54;;;;;;;;;;;;;;;9.33;56.73;98545.53;5085588;28;19927;-56
2023/05/17 06:16:22;;;;;;;;;;;;;;;9.42;56.73;98543.78;5093155;28;20383;-56
2023/05/17 06:18:51;;;;;;;;;;;;;;;9.44;56.77;98542.41;5092514;28;19926;-56
2023/05/17 06:21:19;;;;;;;;;;;;;;;9.41;56.89;98548.41;5095189;28;19932;-58
2023/05/17 06:23:49;;;;;;;;;;;;;;;9.47;57.00;98546.44;5089146;28;19928;-56
2023/05/17 06:26:17;;;;;;;;;;;;;;;9.54;56.80;98554.25;5083286;28;19932;-56
2023/05/17 06:28:45;;;;;;;;;;;;;;;9.60;56.59;98558.53;5076641;28;20423;-56
2023/05/17 06:31:13;;;;;;;;;;;;;;;9.69;56.28;98554.06;5111891;27;19950;-57
2023/05/17 06:33:41;;;;;;;;;;;;;;;9.74;56.17;98555.91;5095115;28;19920;-56
2023/05/17 06:36:10;;;;;;;;;;;;;;;9.74;56.56;98555.91;5089232;28;19921;-58
2023/05/17 06:38:38;;;;;;;;;;;;;;;9.79;55.96;98559.34;5088762;28;20370;-56
2023/05/17 06:41:06;;;;;;;;;;;;;;;9.82;55.71;98566.13;5103063;28;20408;-61
2023/05/17 06:43:34;;;;;;;;;;;;;;;9.79;55.68;98559.34;5074685;28;19932;-56
2023/05/17 06:46:04;;;;;;;;;;;;;;;9.85;55.87;98555.47;5082477;28;19977;-56
2023/05/17 06:48:33;;;;;;;;;;;;;;;9.93;55.47;98563.00;5078990;28;19921;-57
2023/05/17 06:51:01;;;;;;;;;;;;;;;9.82;55.95;98547.94;5088490;28;19920;-57
2023/05/17 06:53:31;;;;;;;;;;;;;;;10.01;55.75;98555.28;5091791;28;19932;-57
2023/05/17 06:56:01;;;;;;;;;;;;;;;10.11;55.40;98558.69;5078010;28;19955;-57
2023/05/17 06:58:29;;;;;;;;;;;;;;;10.18;55.37;98561.06;5094096;28;19988;-56
2023/05/17 07:00:57;;;;;;;;;;;;;;;10.29;55.26;98565.25;5089991;28;19920;-56
2023/05/17 07:03:25;;;;;;;;;;;;;;;10.28;54.93;98566.38;5084164;28;19973;-56
2023/05/17 07:05:54;;;;;;;;;;;;;;;10.20;54.43;98558.84;5085395;28;19920;-56
2023/05/17 07:08:22;;;;;;;;;;;;;;;10.34;54.38;98558.97;5091250;28;19928;-56
2023/05/17 07:10:52;;;;;;;;;;;;;;;10.48;54.39;98559.81;5078811;28;19969;-58
2023/05/17 07:13:20;;;;;;;;;;;;;;;10.55;53.53;98554.84;5087514;28;20348;-57
2023/05/17 07:15:48;;;;;;;;;;;;;;;10.58;53.83;98562.38;5081217;28;20023;-58
2023/05/17 07:18:16;;;;;;;;;;;;;;;10.56;53.65;98561.88;5085898;28;19969;-57
2023/05/17 07:20:44;;;;;;;;;;;;;;;10.58;53.63;98554.22;5086218;28;19927;-57
2023/05/17 07:23:12;;;;;;;;;;;;;;;10.54;53.95;98557.81;5076993;28;20389;-59
2023/05/17 07:25:42;;;;;;;;;;;;;;;10.70;53.47;98554.56;5079586;28;19947;-56
2023/05/17 07:28:11;;;;;;;;;;;;;;;10.58;53.20;98559.66;5095630;27;19920;-56
2023/05/17 07:30:39;;;;;;;;;;;;;;;10.60;53.82;98564.78;5078113;28;19924;-61
2023/05/17 07:33:07;;;;;;;;;;;;;;;10.76;53.40;98558.03;5080723;28;19920;-57
2023/05/17 07:35:35;;;;;;;;;;;;;;;11.02;52.89;98561.97;5084841;28;19928;-61
2023/05/17 07:38:03;;;;;;;;;;;;;;;11.18;52.90;98558.94;5078818;28;19920;-58
2023/05/17 07:40:31;;;;;;;;;;;;;;;11.35;52.13;98561.91;5072848;28;19982;-60
2023/05/17 07:42:59;;;;;;;;;;;;;;;11.43;51.34;98566.66;5083257;28;19932;-61
2023/05/17 07:45:28;;;;;;;;;;;;;;;11.39;51.85;98565.63;5088234;28;19928;-60
2023/05/17 07:47:57;;;;;;;;;;;;;;;11.53;51.55;98571.09;5101175;28;19927;-58
2023/05/17 07:50:27;;;;;;;;;;;;;;;11.64;50.58;98563.53;5086416;28;20360;-64
2023/05/17 07:52:55;;;;;;;;;;;;;;;11.76;50.56;98561.13;5092956;28;19962;-63
2023/05/17 07:55:23;;;;;;;;;;;;;;;11.85;49.84;98566.69;5074255;28;19927;-58
2023/05/17 07:57:51;;;;;;;;;;;;;;;11.80;50.17;98570.31;5113742;27;19926;-57
2023/05/17 08:00:20;;;;;;;;;;;;;;;11.75;50.54;98564.97;5099386;28;19950;-57
2023/05/17 08:02:52;;;;;;;;;;;;;;;11.91;49.92;98558.13;5084014;28;19920;-57
2023/05/17 08:05:22;;;;;;;;;;;;;;;11.93;49.78;98561.38;5078239;28;19927;-57
2023/05/17 08:07:51;;;;;;;;;;;;;;;12.03;49.43;98563.03;5113179;27;19995;-57
2023/05/17 08:10:19;;;;;;;;;;;;;;;11.97;49.74;98565.06;5082201;28;19928;-59
2023/05/17 08:12:47;;;;;;;;;;;;;;;11.68;50.44;98567.28;5081892;28;22011;-57
2023/05/17 08:15:15;;;;;;;;;;;;;;;11.73;51.02;98562.53;5076157;28;19967;-57
2023/05/17 08:17:43;;;;;;;;;;;;;;;11.89;49.35;98570.44;5088912;28;20033;-57
2023/05/17 08:20:12;;;;;;;;;;;;;;;11.96;49.27;98562.66;5092807;28;20432;-60
2023/05/17 08:22:40;;;;;;;;;;;;;;;11.99;49.34;98560.13;5088392;28;20361;-59
2023/05/17 08:25:10;;;;;;;;;;;;;;;11.99;49.43;98562.88;5094416;28;19920;-61
2023/05/17 08:27:38;;;;;;;;;;;;;;;12.05;48.87;98563.56;5081080;28;19924;-58
2023/05/17 08:30:06;;;;;;;;;;;;;;;11.89;47.74;98556.81;5078741;28;19920;-57
2023/05/17 08:32:41;;;;;;;;;;;;;;;11.77;47.88;98562.72;5084234;28;20558;-57
2023/05/17 08:35:09;;;;;;;;;;;;;;;11.74;48.03;98568.78;5076545;28;19981;-58
2023/05/17 08:37:40;;;;;;;;;;;;;;;11.61;47.54;98564.13;5093345;28;19926;-58
2023/05/17 08:40:08;;;;;;;;;;;;;;;11.58;48.19;98571.00;5079208;28;19978;-63
2023/05/17 08:42:36;;;;;;;;;;;;;;;11.62;48.04;98576.66;5084749;28;19970;-59
2023/05/17 08:45:05;;;;;;;;;;;;;;;11.75;47.62;98565.75;5082672;28;19924;-57
2023/05/17 08:47:36;;;;;;;;;;;;;;;11.83;47.31;98572.47;5082515;28;19982;-58
2023/05/17 08:50:06;;;;;;;;;;;;;;;11.87;47.89;98580.81;5080683;28;19924;-58
2023/05/17 08:52:34;;;;;;;;;;;;;;;11.95;47.49;98583.63;5087321;28;20345;-57
2023/05/17 08:55:04;;;;;;;;;;;;;;;11.97;47.60;98584.13;5080698;28;19959;-59
2023/05/17 08:57:34;;;;;;;;;;;;;;;11.98;47.65;98576.75;5076997;28;19922;-57
2023/05/17 09:00:04;;;;;;;;;;;;;;;11.86;47.42;98581.94;5084124;28;20285;-63
2023/05/17 09:02:33;;;;;;;;;;;;;;;11.67;47.78;98584.72;5092730;28;19932;-57
2023/05/17 09:05:01;;;;;;;;;;;;;;;11.60;48.84;98584.31;5079762;28;19920;-62
2023/05/17 09:07:29;;;;;;;;;;;;;;;11.44;49.28;98589.22;5077290;28;19935;-58
2023/05/17 09:09:57;;;;;;;;;;;;;;;11.23;49.70;98588.78;5088943;28;20013;-58
2023/05/17 09:12:26;;;;;;;;;;;;;;;11.19;50.49;98588.59;5094575;28;20000;-57
2023/05/17 09:14:54;;;;;;;;;;;;;;;11.30;50.30;98594.66;5087510;28;19921;-57
2023/05/17 09:17:22;;;;;;;;;;;;;;;11.43;50.22;98588.41;5084537;28;19919;-57
2023/05/17 09:19:50;;;;;;;;;;;;;;;11.40;50.42;98593.63;5094886;28;19982;-56
2023/05/17 09:22:21;;;;;;;;;;;;;;;11.46;50.22;98590.56;5081722;28;19932;-58
2023/05/17 09:24:50;;;;;;;;;;;;;;;11.41;50.43;98590.63;5077465;28;20365;-57
2023/05/17 09:27:18;;;;;;;;;;;;;;;11.45;50.66;98594.38;5079879;28;19922;-57
2023/05/17 09:29:47;;;;;;;;;;;;;;;11.54;50.07;98600.72;5081393;28;20549;-57
2023/05/17 09:32:17;;;;;;;;;;;;;;;11.58;49.94;98605.56;5075098;28;20289;-58
2023/05/17 09:34:45;;;;;;;;;;;;;;;11.53;49.63;98607.28;5079489;28;19943;-60
2023/05/17 09:37:14;;;;;;;;;;;;;;;11.64;49.81;98612.53;5083374;28;19927;-58
2023/05/17 09:39:43;;;;;;;;;;;;;;;11.73;49.84;98605.28;5075320;28;19935;-57
2023/05/17 09:42:11;;;;;;;;;;;;;;;11.80;49.29;98605.69;5083903;28;19927;-57
2023/05/17 09:44:46;;;;;;;;;;;;;;;11.89;49.86;98608.56;5068493;28;20010;-56
2023/05/17 09:47:23;;;;;;;;;;;;;;;11.92;49.97;98608.75;5078795;28;20395;-57
2023/05/17 09:49:51;;;;;;;;;;;;;;;12.04;48.83;98611.78;5088626;28;19955;-56
2023/05/17 09:52:19;;;;;;;;;;;;;;;12.06;48.42;98625.09;5088766;28;20023;-59
2023/05/17 09:54:51;;;;;;;;;;;;;;;12.04;48.59;98621.88;5076928;28;20385;-57
2023/05/17 09:57:19;;;;;;;;;;;;;;;11.93;49.43;98617.72;5080537;28;19943;-58
2023/05/17 09:59:47;;;;;;;;;;;;;;;11.88;49.02;98629.53;5081448;28;19920;-56
2023/05/17 10:02:18;;;;;;;;;;;;;;;11.96;48.78;98626.09;5075187;28;19925;-57
2023/05/17 10:04:48;;;;;;;;;;;;;;;11.81;48.54;98634.53;5080143;28;20348;-56
2023/05/17 10:07:16;;;;;;;;;;;;;;;11.78;48.78;98625.06;5067767;28;19920;-59
2023/05/17 10:09:44;;;;;;;;;;;;;;;11.79;48.57;98631.31;5077808;28;19945;-59
2023/05/17 10:12:14;;;;;;;;;;;;;;;11.84;48.90;98633.97;5079958;28;19921;-56
2023/05/17 10:14:43;;;;;;;;;;;;;;;11.98;48.25;98629.31;5080665;28;20392;-57
2023/05/17 10:17:12;;;;;;;;;;;;;;;11.94;47.76;98627.53;5075228;28;19920;-56
2023/05/17 10:19:41;;;;;;;;;;;;;;;11.96;48.41;98634.25;5082344;28;19943;-56
2023/05/17 10:22:10;;;;;;;;;;;;;;;11.90;48.55;98621.84;5083638;28;20209;-56
2023/05/17 10:24:45;;;;;;;;;;;;;;;11.97;48.57;98626.91;5079665;28;19939;-57
2023/05/17 10:27:14;;;;;;;;;;;;;;;11.90;48.46;98626.50;5087163;28;19951;-58
2023/05/17 10:29:44;;;;;;;;;;;;;;;11.92;48.93;98622.34;5082136;28;19924;-57
2023/05/17 10:32:15;;;;;;;;;;;;;;;12.07;48.98;98623.97;5077515;28;21969;-56
2023/05/17 10:34:43;;;;;;;;;;;;;;;12.02;48.59;98629.53;5088392;28;19920;-57
2023/05/17 10:37:15;;;;;;;;;;;;;;;12.02;49.01;98624.06;5084543;28;20277;-56
2023/05/17 10:39:45;;;;;;;;;;;;;;;12.03;49.70;98631.94;5081288;28;19920;-57
2023/05/17 10:42:14;;;;;;;;;;;;;;;12.05;49.00;98632.44;5109131;27;20282;-58
2023/05/17 10:44:42;;;;;;;;;;;;;;;11.87;49.38;98630.63;5083021;28;19964;-63
2023/05/17 10:47:10;;;;;;;;;;;;;;;11.86;49.69;98629.00;5086921;28;19924;-57
2023/05/17 10:49:40;;;;;;;;;;;;;;;11.93;49.42;98626.72;5085952;28;19920;-59
2023/05/17 10:52:12;;;;;;;;;;;;;;;11.96;49.53;98615.19;5087163;28;19920;-61
2023/05/17 10:54:42;;;;;;;;;;;;;;;11.97;49.44;98624.97;5079864;28;20027;-57
2023/05/17 10:57:18;;;;;;;;;;;;;;;11.95;49.72;98619.03;5088465;28;19967;-57
2023/05/17 10:59:56;;;;;;;;;;;;;;;11.92;50.25;98614.19;5080714;28;19920;-57
2023/05/17 11:02:27;;;;;;;;;;;;;;;11.88;50.42;98612.38;5085803;28;19979;-58
2023/05/17 11:04:56;;;;;;;;;;;;;;;11.93;50.10;98620.44;5084084;28;19957;-57
2023/05/17 11:07:26;;;;;;;;;;;;;;;11.97;50.17;98607.84;5080977;28;19924;-57
2023/05/17 11:09:55;;;;;;;;;;;;;;;12.12;49.67;98606.72;5087821;28;19940;-57
2023/05/17 11:12:31;;;;;;;;;;;;;;;12.09;49.73;98608.16;5082928;28;19920;-58
2023/05/17 11:15:00;;;;;;;;;;;;;;;12.14;49.50;98601.75;5088481;28;19963;-59
2023/05/17 11:17:35;;;;;;;;;;;;;;;12.04;49.69;98602.81;5084291;28;19925;-57
2023/05/17 11:20:05;;;;;;;;;;;;;;;12.14;49.63;98607.22;5083811;28;19959;-58
2023/05/17 11:22:38;;;;;;;;;;;;;;;12.10;49.36;98608.97;5125229;27;20281;-57
2023/05/17 11:25:08;;;;;;;;;;;;;;;12.17;49.83;98601.16;5080708;28;19924;-58
2023/05/17 11:27:36;;;;;;;;;;;;;;;12.31;49.51;98601.97;5085718;28;19943;-57
2023/05/17 11:30:08;;;;;;;;;;;;;;;12.34;49.39;98601.34;5070566;28;19924;-57
2023/05/17 11:32:36;;;;;;;;;;;;;;;12.38;49.18;98598.81;5082183;28;20074;-57
2023/05/17 11:35:05;;;;;;;;;;;;;;;12.41;48.93;98603.63;5084812;28;19970;-58
2023/05/17 11:37:33;;;;;;;;;;;;;;;12.38;48.92;98605.06;5082703;28;19924;-58
2023/05/17 11:40:01;;;;;;;;;;;;;;;12.32;49.25;98606.28;5082676;28;19924;-57
2023/05/17 11:42:33;;;;;;;;;;;;;;;12.30;49.46;98608.50;5084244;27;20472;-57
2023/05/17 11:45:01;;;;;;;;;;;;;;;12.30;48.89;98603.06;5081629;28;19924;-59
2023/05/17 11:47:30;;;;;;;;;;;;;;;12.31;49.27;98604.69;5069723;27;19971;-61
2023/05/17 11:50:00;;;;;;;;;;;;;;;12.24;48.90;98593.38;5079419;28;19920;-58
2023/05/17 11:52:28;;;;;;;;;;;;;;;12.18;48.99;98591.88;5073945;28;19928;-58
2023/05/17 11:54:56;;;;;;;;;;;;;;;12.13;49.54;98584.63;5083538;28;19920;-57
2023/05/17 11:57:29;;;;;;;;;;;;;;;12.15;50.04;98592.50;5080121;28;19927;-58
2023/05/17 12:00:03;;;;;;;;;;;;;;;12.11;49.71;98586.84;5085409;28;20014;-62
2023/05/17 12:02:40;;;;;;;;;;;;;;;12.03;49.70;98599.25;5085512;28;20277;-62
2023/05/17 12:05:08;;;;;;;;;;;;;;;11.96;49.80;98596.13;5084538;28;20274;-61
2023/05/17 12:07:37;;;;;;;;;;;;;;;12.06;49.61;98595.94;5081176;28;19920;-58
2023/05/17 12:10:05;;;;;;;;;;;;;;;12.13;49.09;98586.53;5082271;28;19925;-58
2023/05/17 12:12:33;;;;;;;;;;;;;;;12.32;49.03;98587.22;5083125;28;19920;-58
2023/05/17 12:15:03;;;;;;;;;;;;;;;12.29;48.69;98596.00;5080931;28;19932;-60
2023/05/17 12:17:31;;;;;;;;;;;;;;;12.42;48.49;98588.94;5089490;28;19923;-60
2023/05/17 12:20:06;;;;;;;;;;;;;;;12.56;48.35;98590.47;5077211;28;19939;-57
2023/05/17 12:22:34;;;;;;;;;;;;;;;12.69;47.48;98596.22;5082528;28;19928;-58
2023/05/17 12:25:02;;;;;;;;;;;;;;;12.76;47.59;98593.84;5081950;28;19924;-58
2023/05/17 12:27:30;;;;;;;;;;;;;;;12.66;47.52;98591.38;5072812;28;19973;-58
2023/05/17 12:29:58;;;;;;;;;;;;;;;12.58;48.51;98588.25;5082713;28;19962;-61
2023/05/17 12:32:27;;;;;;;;;;;;;;;12.40;48.42;98586.47;5083133;28;20461;-66
2023/05/17 12:34:55;;;;;;;;;;;;;;;12.44;48.43;98587.50;5079124;28;19985;-61
2023/05/17 12:37:23;;;;;;;;;;;;;;;12.51;48.29;98587.06;5080205;28;20356;-58
2023/05/17 12:39:51;;;;;;;;;;;;;;;12.65;47.78;98587.03;5075952;28;19925;-58
2023/05/17 12:42:21;;;;;;;;;;;;;;;12.62;48.23;98587.63;5076558;28;19931;-58
2023/05/17 12:44:51;;;;;;;;;;;;;;;12.53;48.39;98588.38;5080485;28;20019;-58
2023/05/17 12:47:19;;;;;;;;;;;;;;;12.55;48.03;98591.59;5080297;28;19920;-57
2023/05/17 12:49:53;;;;;;;;;;;;;;;12.48;48.15;98588.50;5084908;28;19920;-59
2023/05/17 12:52:21;;;;;;;;;;;;;;;12.48;48.19;98599.41;5082995;28;20289;-62
2023/05/17 12:54:50;;;;;;;;;;;;;;;12.50;48.72;98591.72;5084470;28;19956;-58
2023/05/17 12:57:18;;;;;;;;;;;;;;;12.54;48.68;98598.16;5092526;28;19932;-64
2023/05/17 12:59:47;;;;;;;;;;;;;;;12.66;48.22;98594.09;5088668;28;19923;-59
2023/05/17 13:02:18;;;;;;;;;;;;;;;12.65;47.83;98603.38;5102052;27;19932;-57